Time;durP1;ratioP1;P1;durP2;ratioP2;P2;SDS_P1;SDS_P2;PMS_P1;PMS_P2;Temp;Humidity;BMP_temperature;BMP_pressure;BME280_temperature;BME280_humidity;BME280_pressure;Samples;Min_cycle;Max_cycle;Signal;HPM_P1;HPM_P2
2022/10/28 00:02:17;;;;;;;13.75;5.40;;;14.30;99.90;;;;;;4924559;29;20051;-84
2022/10/28 00:04:43;;;;;;;7.65;5.10;;;14.10;99.90;;;;;;4900083;29;20052;-84
2022/10/28 00:07:08;;;;;;;11.40;6.07;;;14.10;99.90;;;;;;4907404;29;22195;-84
2022/10/28 00:09:34;;;;;;;15.00;6.07;;;14.10;99.90;;;;;;4910243;29;20048;-84
2022/10/28 00:11:59;;;;;;;16.38;7.03;;;14.20;99.90;;;;;;4899828;29;20035;-84
2022/10/28 00:14:25;;;;;;;14.13;7.28;;;14.10;99.90;;;;;;4910408;29;20056;-84
2022/10/28 00:16:51;;;;;;;12.70;7.30;;;14.20;99.90;;;;;;4900696;29;20040;-85
2022/10/28 00:19:16;;;;;;;11.70;7.10;;;14.30;99.90;;;;;;4912147;29;20043;-84
2022/10/28 00:21:43;;;;;;;11.05;6.97;;;14.30;99.90;;;;;;4900516;29;20158;-84
2022/10/28 00:24:11;;;;;;;13.38;6.97;;;14.40;99.90;;;;;;4913891;29;20398;-85
2022/10/28 00:26:41;;;;;;;12.65;6.95;;;14.40;99.90;;;;;;4910477;29;20047;-84
2022/10/28 00:29:13;;;;;;;17.20;7.68;;;14.50;99.90;;;;;;4911109;29;20493;-85
2022/10/28 00:31:39;;;;;;;16.08;8.15;;;14.50;99.90;;;;;;4892439;29;20048;-85
2022/10/28 00:34:09;;;;;;;14.90;7.80;;;14.50;99.90;;;;;;4911842;29;20044;-84
2022/10/28 00:36:37;;;;;;;13.98;7.30;;;14.60;99.90;;;;;;4893129;29;20048;-85
2022/10/28 00:39:17;;;;;;;14.30;7.82;;;14.60;99.90;;;;;;4911014;29;20074;-84
2022/10/28 00:41:46;;;;;;;13.00;7.75;;;14.60;99.90;;;;;;4908257;29;20761;-84
2022/10/28 00:44:49;;;;;;;15.68;8.00;;;14.60;99.90;;;;;;4894634;29;20071;-85
2022/10/28 00:47:34;;;;;;;15.00;8.23;;;14.60;99.90;;;;;;4908917;29;20044;-84
2022/10/28 00:50:27;;;;;;;14.93;7.35;;;14.70;99.90;;;;;;4912624;29;20086;-85
2022/10/28 00:53:18;;;;;;;17.42;7.40;;;14.70;99.90;;;;;;4909046;29;20183;-85
2022/10/28 00:55:44;;;;;;;16.10;7.60;;;14.70;99.90;;;;;;4915034;29;20406;-84
2022/10/28 00:58:11;;;;;;;12.95;7.63;;;14.60;99.90;;;;;;4908269;29;20128;-84
2022/10/28 01:00:36;;;;;;;15.40;7.97;;;14.70;99.90;;;;;;4905074;29;20475;-83
2022/10/28 01:03:02;;;;;;;10.73;7.50;;;14.60;99.90;;;;;;4903208;29;20044;-84
2022/10/28 01:05:30;;;;;;;15.27;8.85;;;14.60;99.90;;;;;;4910805;29;20052;-84
2022/10/28 01:08:00;;;;;;;13.32;8.15;;;14.60;99.90;;;;;;4905479;29;20047;-85
2022/10/28 01:10:46;;;;;;;18.02;8.25;;;14.60;99.90;;;;;;4908977;29;20126;-85
2022/10/28 01:13:24;;;;;;;14.70;9.32;;;14.60;99.90;;;;;;4904429;29;20043;-84
2022/10/28 01:16:17;;;;;;;14.10;7.90;;;14.60;99.90;;;;;;4907375;29;20134;-84
2022/10/28 01:18:55;;;;;;;22.42;7.47;;;14.50;99.90;;;;;;4909433;29;20043;-85
2022/10/28 01:21:55;;;;;;;19.42;8.65;;;14.40;99.90;;;;;;4924896;28;20043;-84
2022/10/28 01:24:31;;;;;;;21.38;8.63;;;14.40;99.90;;;;;;4908158;29;20066;-84
2022/10/28 01:27:08;;;;;;;15.43;8.60;;;14.30;99.90;;;;;;4904824;29;21661;-85
2022/10/28 01:29:58;;;;;;;18.58;9.35;;;14.40;99.90;;;;;;4910860;29;20067;-85
2022/10/28 01:32:35;;;;;;;18.67;10.00;;;14.40;99.90;;;;;;4905837;29;20058;-84
2022/10/28 01:35:16;;;;;;;15.95;9.02;;;14.50;99.90;;;;;;4911973;29;20066;-85
2022/10/28 01:37:53;;;;;;;17.23;10.15;;;14.50;99.90;;;;;;4912265;29;20048;-85
2022/10/28 01:40:43;;;;;;;14.00;8.32;;;14.40;99.90;;;;;;4912609;29;20031;-83
2022/10/28 01:43:32;;;;;;;17.67;9.38;;;14.40;99.90;;;;;;4914278;29;20464;-84
2022/10/28 01:46:00;;;;;;;15.13;9.98;;;14.30;99.90;;;;;;4914203;29;21282;-85
2022/10/28 01:48:40;;;;;;;17.25;10.77;;;14.30;99.90;;;;;;4910203;29;20843;-85
2022/10/28 01:51:17;;;;;;;23.17;11.32;;;14.30;99.90;;;;;;4913102;29;20142;-84
2022/10/28 01:53:48;;;;;;;18.83;10.32;;;14.40;99.90;;;;;;4915941;29;20509;-85
2022/10/28 01:56:17;;;;;;;18.98;11.10;;;14.40;99.90;;;;;;4909885;29;20043;-85
2022/10/28 01:58:44;;;;;;;15.40;10.45;;;14.30;99.90;;;;;;4908786;29;20047;-84
2022/10/28 02:01:10;;;;;;;19.45;10.27;;;14.30;99.90;;;;;;4893451;29;20486;-84
2022/10/28 02:03:36;;;;;;;15.05;10.02;;;14.30;99.90;;;;;;4912036;29;20495;-84
2022/10/28 02:06:05;;;;;;;18.20;11.90;;;14.30;99.90;;;;;;4909326;29;20046;-85
2022/10/28 02:08:34;;;;;;;20.30;11.00;;;14.40;99.90;;;;;;4895732;29;20519;-85
2022/10/28 02:11:00;;;;;;;19.48;12.25;;;14.40;99.90;;;;;;4924725;29;20058;-85
2022/10/28 02:13:44;;;;;;;18.10;11.95;;;14.30;99.90;;;;;;4912111;29;20051;-85
2022/10/28 02:16:31;;;;;;;24.52;11.52;;;14.40;99.90;;;;;;4911948;29;20090;-85
2022/10/28 02:19:11;;;;;;;30.45;11.98;;;14.40;99.90;;;;;;4911559;29;20042;-84
2022/10/28 02:22:13;;;;;;;24.42;11.27;;;14.40;99.90;;;;;;4910655;29;20095;-85
2022/10/28 02:25:10;;;;;;;25.33;10.95;;;14.30;99.90;;;;;;4892094;29;20051;-85
2022/10/28 02:28:03;;;;;;;33.92;11.68;;;14.20;99.90;;;;;;4900335;29;20760;-85
2022/10/28 02:30:43;;;;;;;24.80;10.82;;;14.10;99.90;;;;;;4912284;29;20086;-84
2022/10/28 02:33:13;;;;;;;16.08;11.00;;;14.10;99.90;;;;;;4913045;29;20506;-84
2022/10/28 02:35:56;;;;;;;26.23;11.90;;;14.00;99.90;;;;;;4895192;29;20046;-85
2022/10/28 02:38:37;;;;;;;18.20;9.93;;;13.90;99.90;;;;;;4893987;29;20065;-85
2022/10/28 02:41:11;;;;;;;22.98;12.48;;;13.90;99.90;;;;;;4913199;29;20087;-85
2022/10/28 02:43:37;;;;;;;27.05;12.13;;;13.80;99.90;;;;;;4894555;29;20076;-86
2022/10/28 02:46:04;;;;;;;25.13;12.23;;;13.80;99.90;;;;;;4888458;29;20911;-85
2022/10/28 02:48:38;;;;;;;16.27;12.77;;;13.80;99.90;;;;;;4902135;29;20123;-83
2022/10/28 02:51:27;;;;;;;19.73;10.35;;;13.80;99.90;;;;;;4888018;29;20047;-84
2022/10/28 02:54:10;;;;;;;22.20;12.68;;;13.90;99.90;;;;;;4891960;29;20052;-85
2022/10/28 02:56:51;;;;;;;18.00;11.60;;;13.80;99.90;;;;;;4903666;29;20039;-84
2022/10/28 02:59:17;;;;;;;17.10;10.60;;;13.80;99.90;;;;;;4888802;29;20043;-84
2022/10/28 03:01:43;;;;;;;14.52;9.25;;;13.70;99.90;;;;;;4899841;29;20069;-84
2022/10/28 03:04:08;;;;;;;20.25;10.35;;;13.70;99.90;;;;;;4900996;29;20051;-85
2022/10/28 03:06:34;;;;;;;22.10;12.63;;;13.60;99.90;;;;;;4898379;29;20134;-84
2022/10/28 03:08:59;;;;;;;21.35;9.85;;;13.70;99.90;;;;;;4884006;29;20054;-83
2022/10/28 03:11:25;;;;;;;14.85;9.75;;;13.70;99.90;;;;;;4900381;29;20047;-84
2022/10/28 03:13:50;;;;;;;18.50;10.63;;;13.60;99.90;;;;;;4898260;29;20486;-83
2022/10/28 03:16:16;;;;;;;23.58;11.95;;;13.60;99.90;;;;;;4894419;29;20051;-86
2022/10/28 03:18:42;;;;;;;18.88;11.90;;;13.60;99.90;;;;;;4898300;29;20043;-85
2022/10/28 03:21:07;;;;;;;22.25;13.02;;;13.60;99.90;;;;;;4880698;29;20047;-85
2022/10/28 03:23:33;;;;;;;30.10;14.65;;;13.60;99.90;;;;;;4881097;29;20047;-86
2022/10/28 03:25:59;;;;;;;24.33;15.00;;;13.60;99.90;;;;;;4879553;29;20050;-84
2022/10/28 03:28:24;;;;;;;21.50;13.48;;;13.60;99.90;;;;;;4899555;29;20048;-84
2022/10/28 03:30:50;;;;;;;18.50;10.68;;;13.60;99.90;;;;;;4902446;29;20042;-84
2022/10/28 03:33:15;;;;;;;15.23;11.13;;;13.60;99.90;;;;;;4888692;29;20134;-84
2022/10/28 03:35:41;;;;;;;23.77;12.98;;;13.60;99.90;;;;;;4888945;29;20499;-85
2022/10/28 03:38:07;;;;;;;18.48;12.35;;;13.60;99.90;;;;;;4908575;29;20047;-85
2022/10/28 03:40:33;;;;;;;20.63;10.45;;;13.60;99.90;;;;;;4906898;29;20153;-85
2022/10/28 03:42:58;;;;;;;20.00;11.88;;;13.60;99.90;;;;;;4893662;29;20066;-84
2022/10/28 03:45:24;;;;;;;17.65;13.07;;;13.50;99.90;;;;;;4907047;29;20510;-83
2022/10/28 03:47:49;;;;;;;24.15;12.02;;;13.50;99.90;;;;;;4906459;29;21004;-85
2022/10/28 03:50:15;;;;;;;14.77;8.23;;;13.50;99.90;;;;;;4890048;29;20043;-84
2022/10/28 03:52:43;;;;;;;16.95;11.07;;;13.40;99.90;;;;;;4892077;29;20044;-84
2022/10/28 03:55:08;;;;;;;27.17;10.82;;;13.40;99.90;;;;;;4909100;29;20039;-84
2022/10/28 03:57:36;;;;;;;21.42;11.63;;;13.30;99.90;;;;;;4905897;29;20103;-84
2022/10/28 04:00:03;;;;;;;18.67;13.07;;;13.40;99.90;;;;;;4908875;29;20039;-85
2022/10/28 04:02:29;;;;;;;22.42;13.07;;;13.50;99.90;;;;;;4923180;29;20044;-86
2022/10/28 04:04:55;;;;;;;23.95;13.05;;;13.50;99.90;;;;;;4911010;29;20058;-86
2022/10/28 04:07:20;;;;;;;25.17;13.07;;;13.60;99.90;;;;;;4896699;29;20051;-86
2022/10/28 04:09:50;;;;;;;26.25;13.57;;;13.60;99.90;;;;;;4896018;29;20043;-86
2022/10/28 04:12:16;;;;;;;22.08;12.77;;;13.70;99.90;;;;;;4893548;29;20566;-86
2022/10/28 04:14:42;;;;;;;24.70;14.93;;;13.70;99.90;;;;;;4915323;29;20047;-86
2022/10/28 04:17:09;;;;;;;22.17;12.95;;;13.70;99.90;;;;;;4890705;29;20040;-86
2022/10/28 04:19:34;;;;;;;20.05;13.40;;;13.70;99.90;;;;;;4902264;29;20446;-84
2022/10/28 04:22:00;;;;;;;24.40;14.02;;;13.80;99.90;;;;;;4903689;29;20047;-85
2022/10/28 04:24:25;;;;;;;28.35;13.00;;;13.90;99.90;;;;;;4906930;29;20035;-84
2022/10/28 04:26:51;;;;;;;29.67;13.57;;;13.90;99.90;;;;;;4889646;29;20094;-84
2022/10/28 04:29:18;;;;;;;30.52;15.35;;;14.00;99.90;;;;;;4892376;29;20039;-84
2022/10/28 04:31:43;;;;;;;27.92;14.27;;;14.00;99.90;;;;;;4908018;29;20629;-83
2022/10/28 04:34:10;;;;;;;36.63;14.95;;;14.00;99.90;;;;;;4903642;29;20056;-84
2022/10/28 04:36:35;;;;;;;27.20;13.27;;;14.00;99.90;;;;;;4887525;29;20040;-84
2022/10/28 04:39:01;;;;;;;39.40;13.88;;;14.00;99.90;;;;;;4908102;29;20047;-82
2022/10/28 04:41:27;;;;;;;30.80;13.52;;;14.10;99.90;;;;;;4908098;29;20050;-84
2022/10/28 04:43:54;;;;;;;27.33;13.10;;;14.10;99.90;;;;;;4903758;29;20162;-84
2022/10/28 04:46:20;;;;;;;22.15;13.00;;;14.10;99.90;;;;;;4906918;29;20059;-85
2022/10/28 04:48:46;;;;;;;27.02;13.75;;;14.00;99.90;;;;;;4894518;29;20040;-84
2022/10/28 04:51:12;;;;;;;31.80;13.65;;;13.90;99.90;;;;;;4900485;29;20062;-84
2022/10/28 04:53:37;;;;;;;28.67;11.85;;;13.90;99.90;;;;;;4908545;29;20454;-85
2022/10/28 04:56:03;;;;;;;27.35;13.77;;;13.80;99.90;;;;;;4908222;29;20660;-84
2022/10/28 04:58:29;;;;;;;23.52;11.80;;;13.70;99.90;;;;;;4914145;29;20511;-84
2022/10/28 05:00:54;;;;;;;26.45;11.05;;;13.80;99.90;;;;;;4911615;29;20039;-83
2022/10/28 05:03:20;;;;;;;22.85;12.98;;;13.70;99.90;;;;;;4912477;29;20151;-85
2022/10/28 05:05:46;;;;;;;26.50;12.00;;;13.70;99.90;;;;;;4910831;29;20051;-82
2022/10/28 05:08:12;;;;;;;19.98;12.38;;;13.60;99.90;;;;;;4926822;28;20694;-84
2022/10/28 05:10:37;;;;;;;20.65;11.25;;;13.60;99.90;;;;;;4926686;29;20051;-83
2022/10/28 05:13:03;;;;;;;20.55;11.27;;;13.60;99.90;;;;;;4911434;29;20058;-84
2022/10/28 05:15:30;;;;;;;21.98;12.15;;;13.50;99.90;;;;;;4913467;29;20050;-83
2022/10/28 05:17:55;;;;;;;23.13;13.18;;;13.60;99.90;;;;;;4897727;29;20044;-83
2022/10/28 05:20:22;;;;;;;20.60;10.90;;;13.60;99.90;;;;;;4893187;29;20047;-83
2022/10/28 05:22:53;;;;;;;23.58;11.38;;;13.60;99.90;;;;;;4901785;29;20399;-84
2022/10/28 05:25:19;;;;;;;20.70;12.35;;;13.80;99.90;;;;;;4910792;29;20040;-82
2022/10/28 05:27:45;;;;;;;19.63;10.35;;;13.60;99.90;;;;;;4901030;29;20043;-83
2022/10/28 05:30:11;;;;;;;20.27;12.10;;;13.60;99.90;;;;;;4913548;29;20046;-84
2022/10/28 05:32:37;;;;;;;20.80;11.40;;;13.60;99.90;;;;;;4912139;29;20161;-83
2022/10/28 05:35:03;;;;;;;21.42;12.00;;;13.60;99.90;;;;;;4898070;29;20501;-84
2022/10/28 05:37:29;;;;;;;17.83;11.25;;;13.70;99.90;;;;;;4910578;29;20119;-84
2022/10/28 05:39:55;;;;;;;21.02;10.93;;;13.70;99.90;;;;;;4913520;29;20126;-84
2022/10/28 05:42:20;;;;;;;27.58;11.27;;;13.60;99.90;;;;;;4914185;29;20050;-83
2022/10/28 05:44:46;;;;;;;22.35;11.07;;;13.70;99.90;;;;;;4897506;29;20059;-84
2022/10/28 05:47:11;;;;;;;22.30;11.80;;;13.70;99.90;;;;;;4901901;29;20475;-83
2022/10/28 05:49:37;;;;;;;18.15;10.73;;;13.90;99.90;;;;;;4910672;29;20513;-83
2022/10/28 05:52:02;;;;;;;19.50;9.05;;;13.60;99.90;;;;;;4915611;29;20466;-84
2022/10/28 05:54:28;;;;;;;17.08;9.48;;;13.60;99.90;;;;;;4910762;29;20570;-83
2022/10/28 05:57:04;;;;;;;18.30;9.23;;;13.50;99.90;;;;;;4913863;29;20059;-87
2022/10/28 05:59:30;;;;;;;22.25;10.73;;;13.60;99.90;;;;;;4903208;29;20074;-86
2022/10/28 06:01:55;;;;;;;18.83;10.73;;;13.50;99.90;;;;;;4902608;29;20170;-86
2022/10/28 06:04:22;;;;;;;22.83;10.82;;;13.50;99.90;;;;;;4916008;29;20046;-87
2022/10/28 06:06:48;;;;;;;29.77;8.55;;;13.50;99.90;;;;;;4908801;29;20071;-86
2022/10/28 06:09:14;;;;;;;25.30;7.75;;;13.50;99.90;;;;;;4930524;29;20118;-86
2022/10/28 06:11:40;;;;;;;19.27;8.20;;;13.40;99.90;;;;;;4905462;29;20713;-87
2022/10/28 06:14:06;;;;;;;18.75;9.52;;;13.40;99.90;;;;;;4920897;29;20111;-86
2022/10/28 06:16:33;;;;;;;18.50;9.57;;;13.40;99.90;;;;;;4913267;29;20119;-86
2022/10/28 06:18:58;;;;;;;19.50;9.55;;;13.40;99.90;;;;;;4921311;29;21200;-86
2022/10/28 06:21:24;;;;;;;21.42;9.88;;;13.60;99.90;;;;;;4918734;29;20396;-86
2022/10/28 06:23:53;;;;;;;21.98;11.57;;;13.60;99.90;;;;;;4923075;28;20110;-87
2022/10/28 06:26:18;;;;;;;23.20;10.40;;;13.60;99.90;;;;;;4917348;29;20031;-85
2022/10/28 06:28:47;;;;;;;20.77;9.85;;;13.70;99.90;;;;;;4910277;29;20110;-86
2022/10/28 06:31:12;;;;;;;20.33;11.18;;;13.70;99.90;;;;;;4905045;29;20050;-85
2022/10/28 06:33:38;;;;;;;21.40;10.32;;;13.70;99.90;;;;;;4903978;29;20043;-83
2022/10/28 06:36:04;;;;;;;27.48;11.07;;;13.70;99.90;;;;;;4902497;29;20125;-84
2022/10/28 06:38:29;;;;;;;30.95;10.68;;;13.70;99.90;;;;;;4899221;29;20134;-83
2022/10/28 06:40:58;;;;;;;23.58;10.77;;;13.80;99.90;;;;;;4899309;29;20035;-83
2022/10/28 06:43:24;;;;;;;21.73;10.35;;;13.90;99.90;;;;;;4918920;29;20084;-84
2022/10/28 06:45:54;;;;;;;20.23;10.32;;;13.80;99.90;;;;;;4899551;29;20039;-84
2022/10/28 06:48:19;;;;;;;21.00;10.35;;;13.90;99.90;;;;;;4894346;29;20066;-84
2022/10/28 06:50:45;;;;;;;21.05;10.07;;;13.90;99.90;;;;;;4895130;29;20486;-83
2022/10/28 06:53:10;;;;;;;18.30;10.23;;;13.90;99.90;;;;;;4909770;29;20098;-84
2022/10/28 06:55:36;;;;;;;27.23;9.85;;;14.00;99.90;;;;;;4911887;29;20047;-83
2022/10/28 06:58:02;;;;;;;26.42;9.05;;;14.00;99.90;;;;;;4911297;29;20057;-83
2022/10/28 07:00:29;;;;;;;19.83;10.20;;;14.00;99.90;;;;;;4894850;29;20032;-85
2022/10/28 07:02:55;;;;;;;28.38;9.40;;;14.10;99.90;;;;;;4910340;29;20130;-84
2022/10/28 07:05:23;;;;;;;25.23;9.07;;;14.60;99.90;;;;;;4911094;29;20393;-85
2022/10/28 07:07:49;;;;;;;21.25;9.20;;;14.20;99.90;;;;;;4896727;29;20059;-84
2022/10/28 07:10:14;;;;;;;19.90;8.85;;;14.20;99.90;;;;;;4912445;29;20047;-83
2022/10/28 07:12:40;;;;;;;15.82;8.85;;;14.20;99.90;;;;;;4913035;29;20555;-83
2022/10/28 07:15:06;;;;;;;18.83;8.52;;;14.30;99.90;;;;;;4913152;29;20031;-84
2022/10/28 07:17:32;;;;;;;15.55;8.20;;;14.40;99.90;;;;;;4909503;29;20036;-84
2022/10/28 07:19:57;;;;;;;26.90;7.65;;;14.40;99.90;;;;;;4911107;29;20043;-83
2022/10/28 07:22:23;;;;;;;21.85;8.07;;;14.50;99.90;;;;;;4894878;29;20122;-83
2022/10/28 07:24:49;;;;;;;17.00;8.13;;;14.50;99.90;;;;;;4900166;29;20045;-84
2022/10/28 07:27:14;;;;;;;14.38;7.45;;;14.60;99.90;;;;;;4913248;29;20040;-86
2022/10/28 07:29:40;;;;;;;17.40;8.18;;;14.50;99.90;;;;;;4912274;29;20055;-83
2022/10/28 07:32:05;;;;;;;20.40;8.05;;;14.60;99.90;;;;;;4912717;29;20046;-83
2022/10/28 07:34:33;;;;;;;13.93;7.00;;;14.70;99.90;;;;;;4908457;29;20051;-84
2022/10/28 07:36:59;;;;;;;18.77;7.63;;;14.70;99.90;;;;;;4896534;29;20032;-83
2022/10/28 07:39:25;;;;;;;11.02;6.93;;;14.80;99.90;;;;;;4908026;29;20517;-83
2022/10/28 07:41:50;;;;;;;14.93;6.80;;;14.90;99.90;;;;;;4909213;29;20067;-84
2022/10/28 07:44:16;;;;;;;20.65;7.15;;;14.90;99.90;;;;;;4893811;29;20142;-83
2022/10/28 07:46:41;;;;;;;13.60;7.00;;;15.00;99.90;;;;;;4909190;29;20179;-83
2022/10/28 07:49:07;;;;;;;18.67;7.18;;;15.10;99.90;;;;;;4894184;29;20039;-82
2022/10/28 07:51:33;;;;;;;18.55;7.47;;;15.10;99.90;;;;;;4891182;29;20043;-83
2022/10/28 07:53:58;;;;;;;13.43;6.50;;;15.20;99.90;;;;;;4893909;29;20036;-85
2022/10/28 07:56:24;;;;;;;12.55;6.93;;;15.30;99.90;;;;;;4908055;29;20040;-87
2022/10/28 07:58:50;;;;;;;15.32;6.43;;;15.30;99.90;;;;;;4907549;29;20162;-83
2022/10/28 08:01:18;;;;;;;15.68;6.55;;;15.80;99.90;;;;;;4909787;29;20126;-83
2022/10/28 08:03:44;;;;;;;15.80;7.25;;;15.40;99.90;;;;;;4909774;29;20052;-86
2022/10/28 08:06:12;;;;;;;19.02;6.68;;;15.40;99.90;;;;;;4909447;29;20113;-83
2022/10/28 08:08:38;;;;;;;17.00;6.47;;;15.50;99.90;;;;;;4907275;29;20155;-83
2022/10/28 08:11:12;;;;;;;14.63;5.97;;;15.60;99.90;;;;;;4907223;29;20066;-84
2022/10/28 08:13:37;;;;;;;11.35;5.57;;;15.60;99.90;;;;;;4907597;29;20044;-86
2022/10/28 08:16:03;;;;;;;13.32;6.82;;;15.70;99.90;;;;;;4926419;29;20691;-83
2022/10/28 08:18:28;;;;;;;12.50;5.07;;;15.70;99.90;;;;;;4907715;29;20044;-82
2022/10/28 08:20:57;;;;;;;21.25;7.03;;;15.70;99.90;;;;;;4910776;29;20103;-84
2022/10/28 08:23:22;;;;;;;11.68;5.90;;;15.90;99.90;;;;;;4908626;29;20083;-83
2022/10/28 08:25:52;;;;;;;17.98;5.65;;;15.90;99.90;;;;;;4906692;29;20079;-86
2022/10/28 08:28:17;;;;;;;14.55;6.15;;;15.90;99.90;;;;;;4907684;29;20090;-86
2022/10/28 08:30:44;;;;;;;15.60;6.68;;;16.10;99.90;;;;;;4908967;29;20046;-83
2022/10/28 08:33:10;;;;;;;15.43;5.65;;;16.10;99.90;;;;;;4916958;29;20039;-83
2022/10/28 08:35:35;;;;;;;19.95;5.97;;;16.10;99.90;;;;;;4911621;29;20230;-84
2022/10/28 08:38:02;;;;;;;14.10;5.32;;;16.30;99.90;;;;;;4900449;29;20040;-85
2022/10/28 08:40:50;;;;;;;12.23;5.65;;;16.30;99.90;;;;;;4912910;29;20040;-83
2022/10/28 08:43:37;;;;;;;12.43;5.10;;;16.40;99.90;;;;;;4912089;29;20063;-83
2022/10/28 08:46:44;;;;;;;13.52;5.63;;;16.40;99.90;;;;;;4915489;29;20047;-84
2022/10/28 08:49:14;;;;;;;16.60;4.60;;;16.50;99.90;;;;;;4887395;29;20060;-83
2022/10/28 08:52:00;;;;;;;16.25;5.53;;;16.60;99.90;;;;;;4911448;29;21763;-83
2022/10/28 08:54:34;;;;;;;14.43;5.07;;;16.70;99.90;;;;;;4913785;29;20043;-83
2022/10/28 08:57:03;;;;;;;9.10;4.57;;;16.80;99.90;;;;;;4913531;29;20032;-83
2022/10/28 08:59:39;;;;;;;15.07;5.72;;;17.00;99.90;;;;;;4933779;29;20031;-83
2022/10/28 09:02:10;;;;;;;;;;;17.10;99.90;;;;;;4901216;29;20032;-83
2022/10/28 09:04:42;;;;;;;13.40;4.70;;;17.20;99.90;;;;;;4935187;29;19926;-83
2022/10/28 09:07:19;;;;;;;15.93;5.30;;;17.30;99.90;;;;;;4916821;29;20042;-85
2022/10/28 09:09:50;;;;;;;14.90;4.30;;;17.30;99.90;;;;;;4913781;29;20040;-84
2022/10/28 09:12:46;;;;;;;14.13;4.70;;;17.40;99.90;;;;;;4915423;29;20126;-83
2022/10/28 09:15:20;;;;;;;;;;;17.50;99.90;;;;;;4895433;29;20462;-86
2022/10/28 09:17:56;;;;;;;15.35;4.82;;;17.50;99.90;;;;;;4911490;29;19933;-83
2022/10/28 09:20:42;;;;;;;16.08;4.15;;;17.60;99.90;;;;;;4911845;29;20072;-85
2022/10/28 09:23:34;;;;;;;31.35;4.90;;;17.50;99.90;;;;;;4900562;29;20048;-84
2022/10/28 09:26:09;;;;;;;23.65;6.05;;;17.70;99.90;;;;;;4895921;29;20554;-85
2022/10/28 09:28:40;;;;;;;14.00;5.33;;;17.70;99.90;;;;;;4896061;29;20135;-83
2022/10/28 09:31:26;;;;;;;23.50;5.80;;;17.70;99.90;;;;;;4914230;29;20573;-86
2022/10/28 09:34:01;;;;;;;12.53;4.30;;;17.80;99.90;;;;;;4913531;29;20052;-83
2022/10/28 09:36:33;;;;;;;9.15;4.10;;;17.80;99.90;;;;;;4896347;29;20366;-84
2022/10/28 09:39:01;;;;;;;18.90;4.43;;;17.80;99.90;;;;;;4895465;29;20035;-84
2022/10/28 09:41:31;;;;;;;14.43;4.80;;;17.90;99.90;;;;;;4909558;29;20496;-85
2022/10/28 09:44:27;;;;;;;13.68;4.43;;;17.90;99.90;;;;;;4896340;29;20062;-84
2022/10/28 09:46:55;;;;;;;;;;;17.90;99.90;;;;;;4915258;29;20915;-85
2022/10/28 09:49:26;;;;;;;10.63;4.03;;;17.90;99.90;;;;;;4914651;29;20320;-84
2022/10/28 09:52:11;;;;;;;16.65;5.28;;;17.90;99.90;;;;;;4910177;29;20051;-84
2022/10/28 09:59:02;;;;;;;11.95;4.75;;;17.90;99.90;;;;;;4925095;28;20307;-84
2022/10/28 10:01:36;;;;;;;12.30;4.88;;;17.90;99.90;;;;;;4892369;29;20051;-84
2022/10/28 10:04:44;;;;;;;21.50;4.60;;;17.90;99.90;;;;;;4910533;29;20494;-85
2022/10/28 10:07:56;;;;;;;16.85;5.40;;;17.90;99.90;;;;;;4925804;29;20067;-86
2022/10/28 10:18:36;;;;;;;11.85;5.03;;;18.00;99.90;;;;;;4930777;29;20047;-84
2022/10/28 10:21:05;;;;;;;12.93;4.80;;;18.10;99.90;;;;;;4913652;29;20143;-86
2022/10/28 10:24:08;;;;;;;14.45;4.85;;;18.20;99.90;;;;;;4911643;29;20126;-84
2022/10/28 10:30:30;;;;;;;17.25;5.05;;;18.30;99.90;;;;;;4927425;29;20043;-83
2022/10/28 10:32:56;;;;;;;14.23;4.60;;;18.40;99.90;;;;;;4897391;29;20372;-85
2022/10/28 10:35:26;;;;;;;11.60;3.97;;;18.50;99.90;;;;;;4895994;29;21890;-83
2022/10/28 10:37:54;;;;;;;16.65;4.65;;;18.60;99.90;;;;;;4899227;29;20554;-83
2022/10/28 10:40:32;;;;;;;14.60;4.18;;;18.60;99.90;;;;;;4898092;29;20036;-85
2022/10/28 10:43:16;;;;;;;15.88;4.07;;;18.70;99.90;;;;;;4899704;29;20569;-86
2022/10/28 10:46:11;;;;;;;10.05;4.43;;;18.80;99.90;;;;;;4916157;29;20043;-87
2022/10/28 10:48:37;;;;;;;9.50;4.38;;;18.90;99.90;;;;;;4914899;29;20070;-87
2022/10/28 10:51:15;;;;;;;14.13;4.80;;;19.00;99.90;;;;;;4916623;29;20107;-86
2022/10/28 10:53:40;;;;;;;14.70;5.13;;;19.10;99.90;;;;;;4915201;29;20047;-86
2022/10/28 10:56:09;;;;;;;17.90;5.03;;;19.20;99.90;;;;;;4929682;29;20040;-84
2022/10/28 10:58:40;;;;;;;15.07;6.32;;;19.30;99.90;;;;;;4896591;29;20482;-84
2022/10/28 11:01:07;;;;;;;15.13;5.80;;;19.30;99.90;;;;;;4896787;29;20047;-84
2022/10/28 11:03:37;;;;;;;14.13;5.30;;;19.30;99.90;;;;;;4911760;29;20459;-84
2022/10/28 11:06:05;;;;;;;13.30;4.97;;;19.30;99.90;;;;;;4892994;29;20075;-84
2022/10/28 11:08:39;;;;;;;16.73;5.22;;;19.30;99.90;;;;;;4911811;29;20070;-84
2022/10/28 11:11:11;;;;;;;13.30;4.80;;;19.50;99.90;;;;;;4915374;29;20043;-84
2022/10/28 11:13:37;;;;;;;12.10;5.05;;;19.60;99.90;;;;;;4896226;29;20048;-84
2022/10/28 11:16:17;;;;;;;16.55;5.38;;;19.70;99.90;;;;;;4899943;29;20087;-84
2022/10/28 11:18:46;;;;;;;15.85;5.30;;;19.70;99.90;;;;;;4927932;29;20039;-84
2022/10/28 11:21:46;;;;;;;19.52;6.30;;;19.80;99.90;;;;;;4907755;29;20035;-84
2022/10/28 11:24:43;;;;;;;18.58;5.72;;;20.10;99.90;;;;;;4897244;29;20046;-85
2022/10/28 11:27:30;;;;;;;20.17;4.90;;;20.10;99.90;;;;;;4910375;29;20139;-85
2022/10/28 11:29:58;;;;;;;18.85;5.18;;;20.10;99.90;;;;;;4910301;29;20051;-84
2022/10/28 11:33:06;;;;;;;13.63;4.68;;;20.20;99.90;;;;;;4906733;29;20048;-84
2022/10/28 11:35:47;;;;;;;17.52;5.63;;;20.30;99.90;;;;;;4923357;28;21066;-84
2022/10/28 11:38:18;;;;;;;13.85;4.72;;;20.30;99.90;;;;;;4901619;29;20044;-84
2022/10/28 11:41:01;;;;;;;13.05;3.97;;;20.60;99.90;;;;;;4915158;29;20508;-84
2022/10/28 11:43:48;;;;;;;16.15;5.13;;;20.30;99.90;;;;;;4911803;29;20061;-85
2022/10/28 11:46:32;;;;;;;13.00;5.30;;;20.30;99.90;;;;;;4910653;29;20643;-84
2022/10/28 11:49:20;;;;;;;21.17;6.13;;;20.30;99.90;;;;;;4911395;29;20046;-84
2022/10/28 11:51:57;;;;;;;15.40;5.40;;;20.40;99.90;;;;;;4910952;29;20051;-84
2022/10/28 11:54:51;;;;;;;24.65;6.05;;;20.40;99.90;;;;;;4895669;29;20050;-84
2022/10/28 11:57:25;;;;;;;17.20;5.15;;;20.50;99.90;;;;;;4913473;29;20179;-84
2022/10/28 12:00:21;;;;;;;15.00;5.07;;;20.50;99.90;;;;;;4914540;29;20046;-84
2022/10/28 12:03:12;;;;;;;15.40;5.53;;;20.60;99.90;;;;;;4895257;29;20198;-85
2022/10/28 12:05:40;;;;;;;17.40;5.38;;;20.60;99.90;;;;;;4908123;29;20126;-85
2022/10/28 12:08:37;;;;;;;15.05;4.40;;;20.50;99.90;;;;;;4911542;29;20118;-84
2022/10/28 12:11:30;;;;;;;15.43;5.30;;;20.50;99.90;;;;;;4909114;29;20074;-85
2022/10/28 12:14:18;;;;;;;12.80;5.10;;;20.40;99.90;;;;;;4910326;29;20138;-84
2022/10/28 12:16:49;;;;;;;15.98;5.72;;;20.30;99.90;;;;;;4910132;29;20599;-84
2022/10/28 12:19:25;;;;;;;13.15;4.97;;;20.30;99.90;;;;;;4909660;29;20820;-84
2022/10/28 12:22:35;;;;;;;18.77;6.40;;;20.20;99.90;;;;;;4930960;29;20597;-85
2022/10/28 12:25:12;;;;;;;14.07;4.93;;;20.20;99.90;;;;;;4908637;29;20036;-85
2022/10/28 12:27:42;;;;;;;11.43;4.55;;;20.20;99.90;;;;;;4912304;29;20039;-84
2022/10/28 12:30:30;;;;;;;15.98;5.03;;;20.20;99.90;;;;;;4911482;29;20098;-84
2022/10/28 12:33:08;;;;;;;14.68;4.88;;;20.20;99.90;;;;;;4911082;29;20043;-84
2022/10/28 12:35:39;;;;;;;14.57;5.05;;;20.10;99.90;;;;;;4915135;29;20040;-84
2022/10/28 12:38:26;;;;;;;11.40;5.07;;;20.10;99.90;;;;;;4908711;29;20047;-85
2022/10/28 12:41:16;;;;;;;17.33;5.25;;;20.10;99.90;;;;;;4908204;29;20063;-84
2022/10/28 12:43:47;;;;;;;17.75;5.10;;;20.00;99.90;;;;;;4906638;29;20054;-85
2022/10/28 12:46:55;;;;;;;22.20;5.53;;;20.10;99.90;;;;;;4909768;29;20047;-84
2022/10/28 12:49:30;;;;;;;11.15;5.65;;;20.10;99.90;;;;;;4887941;29;20044;-84
2022/10/28 12:52:01;;;;;;;14.57;5.57;;;20.10;99.90;;;;;;4912256;29;20102;-84
2022/10/28 12:54:33;;;;;;;16.00;5.78;;;20.00;99.90;;;;;;4895470;29;20048;-84
2022/10/28 12:57:08;;;;;;;16.95;5.47;;;20.00;99.90;;;;;;4909549;29;20059;-84
2022/10/28 12:59:37;;;;;;;;;;;20.00;99.90;;;;;;4892513;29;20071;-84
2022/10/28 13:02:09;;;;;;;18.48;5.13;;;20.00;99.90;;;;;;4910014;29;19918;-84
2022/10/28 13:04:36;;;;;;;14.93;4.78;;;20.00;99.90;;;;;;4893760;29;20083;-84
2022/10/28 13:07:39;;;;;;;9.93;4.43;;;20.00;99.90;;;;;;4893195;29;20135;-85
2022/10/28 13:10:36;;;;;;;20.55;5.53;;;20.00;99.90;;;;;;4908607;29;20458;-85
2022/10/28 13:13:07;;;;;;;17.42;5.30;;;20.00;99.90;;;;;;4909875;29;20533;-84
2022/10/28 13:15:45;;;;;;;13.20;5.45;;;20.10;99.90;;;;;;4911490;29;20503;-85
2022/10/28 13:18:39;;;;;;;23.92;5.00;;;20.00;99.90;;;;;;4917464;29;20130;-85
2022/10/28 13:21:30;;;;;;;29.35;6.35;;;20.10;99.90;;;;;;4905020;29;20090;-86